sensor_id;sensor_type;location;lat;lon;timestamp;pressure;altitude;pressure_sealevel;temperature;humidity
69667;BME280;66534;52.370;4.832;2024-02-21T00:00:26;102069.25;;;13.85;100.00
69667;BME280;66534;52.370;4.832;2024-02-21T00:00:57;102068.84;;;14.18;100.00
69667;BME280;66534;52.370;4.832;2024-02-21T00:01:27;102066.38;;;14.35;100.00
69667;BME280;66534;52.370;4.832;2024-02-21T00:01:57;102063.75;;;14.35;100.00
69667;BME280;66534;52.370;4.832;2024-02-21T00:02:28;102072.28;;;14.20;100.00
69667;BME280;66534;52.370;4.832;2024-02-21T00:02:58;102065.66;;;14.10;100.00
69667;BME280;66534;52.370;4.832;2024-02-21T00:03:32;102064.19;;;14.03;100.00
69667;BME280;66534;52.370;4.832;2024-02-21T00:04:02;102062.56;;;13.99;100.00
69667;BME280;66534;52.370;4.832;2024-02-21T00:04:33;102059.09;;;13.98;100.00
69667;BME280;66534;52.370;4.832;2024-02-21T00:05:03;102057.66;;;14.33;100.00
69667;BME280;66534;52.370;4.832;2024-02-21T00:05:34;102041.59;;;14.39;100.00
69667;BME280;66534;52.370;4.832;2024-02-21T00:06:04;102056.75;;;14.34;100.00
69667;BME280;66534;52.370;4.832;2024-02-21T00:06:35;102056.22;;;14.26;100.00
69667;BME280;66534;52.370;4.832;2024-02-21T00:07:05;102049.38;;;13.99;100.00
69667;BME280;66534;52.370;4.832;2024-02-21T00:07:35;102050.75;;;14.09;100.00
69667;BME280;66534;52.370;4.832;2024-02-21T00:08:06;102040.91;;;14.12;100.00
69667;BME280;66534;52.370;4.832;2024-02-21T00:08:36;102054.66;;;14.20;100.00
69667;BME280;66534;52.370;4.832;2024-02-21T00:09:07;102047.75;;;14.18;100.00
69667;BME280;66534;52.370;4.832;2024-02-21T00:09:39;102041.22;;;14.27;100.00
69667;BME280;66534;52.370;4.832;2024-02-21T00:10:10;102040.25;;;14.07;100.00
69667;BME280;66534;52.370;4.832;2024-02-21T00:10:40;102042.81;;;14.31;100.00
69667;BME280;66534;52.370;4.832;2024-02-21T00:11:10;102038.91;;;13.97;100.00
69667;BME280;66534;52.370;4.832;2024-02-21T00:11:41;102034.84;;;14.10;100.00
69667;BME280;66534;52.370;4.832;2024-02-21T00:12:11;102048.72;;;14.15;100.00
69667;BME280;66534;52.370;4.832;2024-02-21T00:12:43;102037.00;;;14.23;100.00
69667;BME280;66534;52.370;4.832;2024-02-21T00:13:14;102042.31;;;14.21;100.00
69667;BME280;66534;52.370;4.832;2024-02-21T00:13:45;102033.72;;;14.16;100.00
69667;BME280;66534;52.370;4.832;2024-02-21T00:14:15;102050.63;;;13.66;100.00
69667;BME280;66534;52.370;4.832;2024-02-21T00:14:46;102038.72;;;13.80;100.00
69667;BME280;66534;52.370;4.832;2024-02-21T00:15:16;102039.94;;;13.93;100.00
69667;BME280;66534;52.370;4.832;2024-02-21T00:15:47;102045.06;;;13.96;100.00
69667;BME280;66534;52.370;4.832;2024-02-21T00:16:17;102043.91;;;13.81;100.00
69667;BME280;66534;52.370;4.832;2024-02-21T00:16:48;102043.88;;;14.05;100.00
69667;BME280;66534;52.370;4.832;2024-02-21T00:17:18;102040.72;;;13.73;100.00
69667;BME280;66534;52.370;4.832;2024-02-21T00:17:48;102042.38;;;13.76;100.00
69667;BME280;66534;52.370;4.832;2024-02-21T00:18:19;102054.00;;;13.93;100.00
69667;BME280;66534;52.370;4.832;2024-02-21T00:18:49;102042.75;;;14.10;100.00
69667;BME280;66534;52.370;4.832;2024-02-21T00:19:20;102044.88;;;13.79;100.00
69667;BME280;66534;52.370;4.832;2024-02-21T00:19:51;102042.94;;;13.84;100.00
69667;BME280;66534;52.370;4.832;2024-02-21T00:20:21;102046.28;;;13.87;100.00
69667;BME280;66534;52.370;4.832;2024-02-21T00:20:51;102039.31;;;14.08;100.00
69667;BME280;66534;52.370;4.832;2024-02-21T00:21:23;102042.13;;;14.04;100.00
69667;BME280;66534;52.370;4.832;2024-02-21T00:21:53;102047.50;;;13.79;100.00
69667;BME280;66534;52.370;4.832;2024-02-21T00:22:23;102050.16;;;13.79;100.00
69667;BME280;66534;52.370;4.832;2024-02-21T00:22:54;102049.97;;;13.83;100.00
69667;BME280;66534;52.370;4.832;2024-02-21T00:23:25;102047.59;;;13.77;100.00
69667;BME280;66534;52.370;4.832;2024-02-21T00:23:55;102051.47;;;13.90;100.00
69667;BME280;66534;52.370;4.832;2024-02-21T00:24:26;102047.50;;;13.79;100.00
69667;BME280;66534;52.370;4.832;2024-02-21T00:24:56;102048.09;;;13.87;100.00
69667;BME280;66534;52.370;4.832;2024-02-21T00:25:28;102045.41;;;13.65;100.00
69667;BME280;66534;52.370;4.832;2024-02-21T00:25:58;102042.78;;;13.65;100.00
69667;BME280;66534;52.370;4.832;2024-02-21T00:26:29;102048.50;;;13.76;100.00
69667;BME280;66534;52.370;4.832;2024-02-21T00:26:59;102045.59;;;13.84;100.00
69667;BME280;66534;52.370;4.832;2024-02-21T00:27:29;102045.47;;;14.09;100.00
69667;BME280;66534;52.370;4.832;2024-02-21T00:28:01;102032.31;;;13.63;100.00
69667;BME280;66534;52.370;4.832;2024-02-21T00:28:31;102048.63;;;13.95;100.00
69667;BME280;66534;52.370;4.832;2024-02-21T00:29:01;102038.47;;;13.86;100.00
69667;BME280;66534;52.370;4.832;2024-02-21T00:29:32;102031.28;;;13.67;100.00
69667;BME280;66534;52.370;4.832;2024-02-21T00:30:02;102032.41;;;13.60;100.00
69667;BME280;66534;52.370;4.832;2024-02-21T00:30:33;102034.66;;;13.48;100.00
69667;BME280;66534;52.370;4.832;2024-02-21T00:31:04;102040.53;;;13.54;100.00
69667;BME280;66534;52.370;4.832;2024-02-21T00:31:35;102031.72;;;14.01;100.00
69667;BME280;66534;52.370;4.832;2024-02-21T00:32:06;102040.31;;;14.06;100.00
69667;BME280;66534;52.370;4.832;2024-02-21T00:32:36;102030.34;;;13.68;100.00
69667;BME280;66534;52.370;4.832;2024-02-21T00:33:07;102042.25;;;13.79;100.00
69667;BME280;66534;52.370;4.832;2024-02-21T00:33:37;102043.06;;;13.57;100.00
69667;BME280;66534;52.370;4.832;2024-02-21T00:34:08;102040.88;;;13.92;100.00
69667;BME280;66534;52.370;4.832;2024-02-21T00:34:38;102026.97;;;13.87;100.00
69667;BME280;66534;52.370;4.832;2024-02-21T00:35:08;102032.97;;;13.92;100.00
69667;BME280;66534;52.370;4.832;2024-02-21T00:35:39;102036.84;;;14.04;100.00
69667;BME280;66534;52.370;4.832;2024-02-21T00:36:09;102030.81;;;14.02;100.00
69667;BME280;66534;52.370;4.832;2024-02-21T00:36:40;102035.41;;;13.97;100.00
69667;BME280;66534;52.370;4.832;2024-02-21T00:37:10;102038.94;;;13.95;100.00
69667;BME280;66534;52.370;4.832;2024-02-21T00:37:41;102037.50;;;13.65;100.00
69667;BME280;66534;52.370;4.832;2024-02-21T00:38:11;102042.56;;;13.71;100.00
69667;BME280;66534;52.370;4.832;2024-02-21T00:38:41;102039.69;;;13.77;100.00
69667;BME280;66534;52.370;4.832;2024-02-21T00:39:12;102045.81;;;13.78;100.00
69667;BME280;66534;52.370;4.832;2024-02-21T00:39:42;102047.03;;;13.69;100.00
69667;BME280;66534;52.370;4.832;2024-02-21T00:40:13;102049.41;;;13.75;100.00
69667;BME280;66534;52.370;4.832;2024-02-21T00:40:46;102051.66;;;13.86;100.00
69667;BME280;66534;52.370;4.832;2024-02-21T00:41:16;102037.91;;;14.00;100.00
69667;BME280;66534;52.370;4.832;2024-02-21T00:41:47;102040.69;;;13.97;100.00
69667;BME280;66534;52.370;4.832;2024-02-21T00:42:17;102040.88;;;14.14;100.00
69667;BME280;66534;52.370;4.832;2024-02-21T00:42:48;102035.63;;;13.68;100.00
69667;BME280;66534;52.370;4.832;2024-02-21T00:43:19;102039.31;;;13.86;100.00
69667;BME280;66534;52.370;4.832;2024-02-21T00:43:49;102034.22;;;13.82;100.00
69667;BME280;66534;52.370;4.832;2024-02-21T00:44:20;102045.88;;;13.98;100.00
69667;BME280;66534;52.370;4.832;2024-02-21T00:44:50;102036.88;;;14.26;100.00
69667;BME280;66534;52.370;4.832;2024-02-21T00:45:21;102021.78;;;14.07;100.00
69667;BME280;66534;52.370;4.832;2024-02-21T00:45:51;102039.94;;;14.15;100.00
69667;BME280;66534;52.370;4.832;2024-02-21T00:46:21;102042.03;;;14.07;100.00
69667;BME280;66534;52.370;4.832;2024-02-21T00:46:52;102034.22;;;14.04;100.00
69667;BME280;66534;52.370;4.832;2024-02-21T00:47:22;102040.97;;;14.11;100.00
69667;BME280;66534;52.370;4.832;2024-02-21T00:47:53;102043.13;;;14.01;100.00
69667;BME280;66534;52.370;4.832;2024-02-21T00:48:23;102030.78;;;14.24;100.00
69667;BME280;66534;52.370;4.832;2024-02-21T00:48:53;102046.81;;;14.19;100.00
69667;BME280;66534;52.370;4.832;2024-02-21T00:49:24;102039.00;;;13.94;100.00
69667;BME280;66534;52.370;4.832;2024-02-21T00:49:54;102032.28;;;14.09;100.00
69667;BME280;66534;52.370;4.832;2024-02-21T00:50:25;102042.75;;;14.10;100.00
69667;BME280;66534;52.370;4.832;2024-02-21T00:50:55;102046.38;;;14.08;100.00
69667;BME280;66534;52.370;4.832;2024-02-21T00:51:26;102044.09;;;13.77;100.00
69667;BME280;66534;52.370;4.832;2024-02-21T00:51:56;102042.88;;;13.85;100.00
69667;BME280;66534;52.370;4.832;2024-02-21T00:52:26;102037.09;;;14.19;100.00
69667;BME280;66534;52.370;4.832;2024-02-21T00:52:57;102037.69;;;14.06;100.00
69667;BME280;66534;52.370;4.832;2024-02-21T00:53:27;102033.91;;;14.11;100.00
69667;BME280;66534;52.370;4.832;2024-02-21T00:53:58;102030.72;;;14.25;100.00
69667;BME280;66534;52.370;4.832;2024-02-21T00:54:28;102029.97;;;13.78;100.00
69667;BME280;66534;52.370;4.832;2024-02-21T00:54:58;102039.31;;;13.86;100.00
69667;BME280;66534;52.370;4.832;2024-02-21T00:55:29;102035.91;;;14.06;100.00
69667;BME280;66534;52.370;4.832;2024-02-21T00:55:59;102023.31;;;13.91;100.00
69667;BME280;66534;52.370;4.832;2024-02-21T00:56:29;102025.81;;;14.16;100.00
69667;BME280;66534;52.370;4.832;2024-02-21T00:57:00;102025.00;;;14.36;100.00
69667;BME280;66534;52.370;4.832;2024-02-21T00:57:31;102020.34;;;14.42;100.00
69667;BME280;66534;52.370;4.832;2024-02-21T00:58:02;102028.75;;;14.08;100.00
69667;BME280;66534;52.370;4.832;2024-02-21T00:58:32;102032.22;;;14.10;100.00
69667;BME280;66534;52.370;4.832;2024-02-21T00:59:02;102028.09;;;14.03;100.00
69667;BME280;66534;52.370;4.832;2024-02-21T00:59:33;102032.25;;;13.87;100.00
69667;BME280;66534;52.370;4.832;2024-02-21T01:00:03;101927.06;;;13.57;100.00
69667;BME280;66534;52.370;4.832;2024-02-21T01:00:34;102028.25;;;14.20;100.00
69667;BME280;66534;52.370;4.832;2024-02-21T01:01:05;102033.25;;;14.28;100.00
69667;BME280;66534;52.370;4.832;2024-02-21T01:01:35;102020.63;;;13.92;100.00
69667;BME280;66534;52.370;4.832;2024-02-21T01:02:05;102023.06;;;14.19;100.00
69667;BME280;66534;52.370;4.832;2024-02-21T01:02:36;102026.31;;;14.26;100.00
69667;BME280;66534;52.370;4.832;2024-02-21T01:03:06;102026.06;;;14.32;100.00
69667;BME280;66534;52.370;4.832;2024-02-21T01:03:39;102015.41;;;14.13;100.00
69667;BME280;66534;52.370;4.832;2024-02-21T01:04:09;102013.44;;;14.18;100.00
69667;BME280;66534;52.370;4.832;2024-02-21T01:04:40;102022.59;;;14.09;100.00
69667;BME280;66534;52.370;4.832;2024-02-21T01:05:10;102022.06;;;14.00;100.00
69667;BME280;66534;52.370;4.832;2024-02-21T01:05:41;102024.88;;;13.73;100.00
69667;BME280;66534;52.370;4.832;2024-02-21T01:06:11;102025.91;;;13.92;100.00
69667;BME280;66534;52.370;4.832;2024-02-21T01:06:41;102022.44;;;13.90;100.00
69667;BME280;66534;52.370;4.832;2024-02-21T01:07:14;102024.97;;;14.15;100.00
69667;BME280;66534;52.370;4.832;2024-02-21T01:07:44;102025.25;;;14.08;100.00
69667;BME280;66534;52.370;4.832;2024-02-21T01:08:14;102019.16;;;13.62;100.00
69667;BME280;66534;52.370;4.832;2024-02-21T01:08:48;102022.06;;;13.78;100.00
69667;BME280;66534;52.370;4.832;2024-02-21T01:09:19;102024.41;;;13.85;100.00
69667;BME280;66534;52.370;4.832;2024-02-21T01:09:49;102017.72;;;13.99;100.00
69667;BME280;66534;52.370;4.832;2024-02-21T01:10:21;102023.81;;;14.01;100.00
69667;BME280;66534;52.370;4.832;2024-02-21T01:10:52;102014.41;;;13.93;100.00
69667;BME280;66534;52.370;4.832;2024-02-21T01:11:23;102020.00;;;13.86;100.00
69667;BME280;66534;52.370;4.832;2024-02-21T01:11:53;102006.91;;;13.83;100.00
69667;BME280;66534;52.370;4.832;2024-02-21T01:12:24;102004.16;;;14.08;100.00
69667;BME280;66534;52.370;4.832;2024-02-21T01:12:54;102009.44;;;14.08;100.00
69667;BME280;66534;52.370;4.832;2024-02-21T01:13:25;102014.41;;;13.93;100.00
69667;BME280;66534;52.370;4.832;2024-02-21T01:13:55;102014.78;;;13.84;100.00
69667;BME280;66534;52.370;4.832;2024-02-21T01:14:26;102020.44;;;13.97;100.00
69667;BME280;66534;52.370;4.832;2024-02-21T01:14:56;102007.72;;;13.85;100.00
69667;BME280;66534;52.370;4.832;2024-02-21T01:15:27;102014.53;;;14.12;100.00
69667;BME280;66534;52.370;4.832;2024-02-21T01:15:57;102003.22;;;14.31;100.00
69667;BME280;66534;52.370;4.832;2024-02-21T01:16:27;102006.06;;;14.04;100.00
69667;BME280;66534;52.370;4.832;2024-02-21T01:16:58;102003.69;;;13.98;100.00
69667;BME280;66534;52.370;4.832;2024-02-21T01:17:28;102004.34;;;13.81;100.00
69667;BME280;66534;52.370;4.832;2024-02-21T01:17:59;102008.41;;;13.90;100.00
69667;BME280;66534;52.370;4.832;2024-02-21T01:18:29;102001.94;;;13.75;100.00
69667;BME280;66534;52.370;4.832;2024-02-21T01:18:59;102009.00;;;13.75;100.00
69667;BME280;66534;52.370;4.832;2024-02-21T01:19:30;102010.84;;;13.94;100.00
69667;BME280;66534;52.370;4.832;2024-02-21T01:20:00;101995.38;;;14.07;100.00
69667;BME280;66534;52.370;4.832;2024-02-21T01:20:31;102003.19;;;13.88;100.00
69667;BME280;66534;52.370;4.832;2024-02-21T01:21:01;102001.59;;;14.06;100.00
69667;BME280;66534;52.370;4.832;2024-02-21T01:21:32;102001.47;;;14.09;100.00
69667;BME280;66534;52.370;4.832;2024-02-21T01:22:02;101987.44;;;14.09;100.00
69667;BME280;66534;52.370;4.832;2024-02-21T01:22:33;101992.81;;;14.06;100.00
69667;BME280;66534;52.370;4.832;2024-02-21T01:23:03;101997.78;;;14.13;100.00
69667;BME280;66534;52.370;4.832;2024-02-21T01:23:34;102000.91;;;14.23;100.00
69667;BME280;66534;52.370;4.832;2024-02-21T01:24:05;101985.13;;;14.42;100.00
69667;BME280;66534;52.370;4.832;2024-02-21T01:24:36;101988.78;;;14.39;100.00
69667;BME280;66534;52.370;4.832;2024-02-21T01:25:06;101988.97;;;14.35;100.00
69667;BME280;66534;52.370;4.832;2024-02-21T01:25:37;101986.88;;;14.43;100.00
69667;BME280;66534;52.370;4.832;2024-02-21T01:26:07;101983.63;;;14.36;100.00
69667;BME280;66534;52.370;4.832;2024-02-21T01:26:38;101991.53;;;14.36;100.00
69667;BME280;66534;52.370;4.832;2024-02-21T01:27:08;101986.91;;;14.21;100.00
69667;BME280;66534;52.370;4.832;2024-02-21T01:27:39;101980.41;;;14.30;100.00
69667;BME280;66534;52.370;4.832;2024-02-21T01:28:09;101985.50;;;14.12;100.00
69667;BME280;66534;52.370;4.832;2024-02-21T01:28:40;101980.53;;;14.27;100.00
69667;BME280;66534;52.370;4.832;2024-02-21T01:29:10;101979.06;;;14.19;100.00
69667;BME280;66534;52.370;4.832;2024-02-21T01:29:41;101975.03;;;14.11;100.00
69667;BME280;66534;52.370;4.832;2024-02-21T01:30:11;101978.72;;;13.85;100.00
69667;BME280;66534;52.370;4.832;2024-02-21T01:30:42;101984.25;;;14.01;100.00
69667;BME280;66534;52.370;4.832;2024-02-21T01:31:12;101972.63;;;14.47;100.00
69667;BME280;66534;52.370;4.832;2024-02-21T01:31:43;101977.69;;;14.31;100.00
69667;BME280;66534;52.370;4.832;2024-02-21T01:32:13;101982.34;;;14.25;100.00
69667;BME280;66534;52.370;4.832;2024-02-21T01:32:43;101980.78;;;14.41;100.00
69667;BME280;66534;52.370;4.832;2024-02-21T01:33:14;101979.44;;;14.10;100.00
69667;BME280;66534;52.370;4.832;2024-02-21T01:33:44;101984.75;;;13.88;100.00
69667;BME280;66534;52.370;4.832;2024-02-21T01:34:15;101977.31;;;13.76;100.00
69667;BME280;66534;52.370;4.832;2024-02-21T01:34:45;101977.47;;;14.15;100.00
69667;BME280;66534;52.370;4.832;2024-02-21T01:35:16;101976.09;;;14.27;100.00
69667;BME280;66534;52.370;4.832;2024-02-21T01:35:46;101981.09;;;13.91;100.00
69667;BME280;66534;52.370;4.832;2024-02-21T01:36:17;101973.84;;;13.96;100.00
69667;BME280;66534;52.370;4.832;2024-02-21T01:36:47;101980.97;;;13.94;100.00
69667;BME280;66534;52.370;4.832;2024-02-21T01:37:17;101981.47;;;14.04;100.00
69667;BME280;66534;52.370;4.832;2024-02-21T01:37:48;101978.28;;;13.95;100.00
69667;BME280;66534;52.370;4.832;2024-02-21T01:38:18;101979.63;;;14.06;100.00
69667;BME280;66534;52.370;4.832;2024-02-21T01:38:49;101976.13;;;14.05;100.00
69667;BME280;66534;52.370;4.832;2024-02-21T01:39:19;101975.03;;;14.11;100.00
69667;BME280;66534;52.370;4.832;2024-02-21T01:39:50;101977.03;;;14.26;100.00
69667;BME280;66534;52.370;4.832;2024-02-21T01:40:20;101973.66;;;14.23;100.00
69667;BME280;66534;52.370;4.832;2024-02-21T01:40:51;101972.19;;;14.15;100.00
69667;BME280;66534;52.370;4.832;2024-02-21T01:41:21;101970.56;;;14.13;100.00
69667;BME280;66534;52.370;4.832;2024-02-21T01:41:51;101971.03;;;14.23;100.00
69667;BME280;66534;52.370;4.832;2024-02-21T01:42:22;101963.59;;;14.10;100.00
69667;BME280;66534;52.370;4.832;2024-02-21T01:42:55;101966.00;;;13.94;100.00
69667;BME280;66534;52.370;4.832;2024-02-21T01:43:26;101967.13;;;13.89;100.00
69667;BME280;66534;52.370;4.832;2024-02-21T01:43:56;101970.81;;;13.85;100.00
69667;BME280;66534;52.370;4.832;2024-02-21T01:44:27;101959.81;;;13.95;100.00
69667;BME280;66534;52.370;4.832;2024-02-21T01:44:58;101961.66;;;13.93;100.00
69667;BME280;66534;52.370;4.832;2024-02-21T01:45:28;101968.19;;;14.27;100.00
69667;BME280;66534;52.370;4.832;2024-02-21T01:45:59;101973.25;;;14.32;100.00
69667;BME280;66534;52.370;4.832;2024-02-21T01:46:29;101958.56;;;14.04;100.00
69667;BME280;66534;52.370;4.832;2024-02-21T01:47:00;101967.50;;;14.02;100.00
69667;BME280;66534;52.370;4.832;2024-02-21T01:47:31;101964.78;;;14.03;100.00
69667;BME280;66534;52.370;4.832;2024-02-21T01:48:02;101962.78;;;14.30;100.00
69667;BME280;66534;52.370;4.832;2024-02-21T01:48:32;101956.75;;;14.06;100.00
69667;BME280;66534;52.370;4.832;2024-02-21T01:49:03;101957.38;;;13.69;100.00
69667;BME280;66534;52.370;4.832;2024-02-21T01:49:35;101969.69;;;13.90;100.00
69667;BME280;66534;52.370;4.832;2024-02-21T01:50:05;101969.22;;;13.81;100.00
69667;BME280;66534;52.370;4.832;2024-02-21T01:50:36;101964.72;;;13.61;100.00
69667;BME280;66534;52.370;4.832;2024-02-21T01:51:07;101967.31;;;13.84;100.00
69667;BME280;66534;52.370;4.832;2024-02-21T01:51:38;101961.22;;;13.82;100.00
69667;BME280;66534;52.370;4.832;2024-02-21T01:52:09;101964.69;;;13.84;100.00
69667;BME280;66534;52.370;4.832;2024-02-21T01:52:45;101959.69;;;13.99;100.00
69667;BME280;66534;52.370;4.832;2024-02-21T01:53:23;101965.09;;;14.17;100.00
69667;BME280;66534;52.370;4.832;2024-02-21T01:53:57;101945.41;;;13.82;100.00
69667;BME280;66534;52.370;4.832;2024-02-21T01:54:28;101962.75;;;13.44;100.00
69667;BME280;66534;52.370;4.832;2024-02-21T01:54:59;101963.81;;;13.84;100.00
69667;BME280;66534;52.370;4.832;2024-02-21T01:55:30;101975.25;;;13.61;100.00
69667;BME280;66534;52.370;4.832;2024-02-21T01:56:00;101961.59;;;13.73;100.00
69667;BME280;66534;52.370;4.832;2024-02-21T01:56:31;101966.78;;;13.53;100.00
69667;BME280;66534;52.370;4.832;2024-02-21T01:57:02;101963.88;;;13.60;100.00
69667;BME280;66534;52.370;4.832;2024-02-21T01:57:34;101957.88;;;14.21;100.00
69667;BME280;66534;52.370;4.832;2024-02-21T01:58:04;101962.25;;;13.56;100.00
69667;BME280;66534;52.370;4.832;2024-02-21T01:58:36;101952.75;;;13.96;100.00
69667;BME280;66534;52.370;4.832;2024-02-21T01:59:09;101953.19;;;13.85;100.00
69667;BME280;66534;52.370;4.832;2024-02-21T01:59:40;101962.41;;;13.97;100.00
69667;BME280;66534;52.370;4.832;2024-02-21T02:00:11;101951.31;;;13.89;100.00
69667;BME280;66534;52.370;4.832;2024-02-21T02:00:44;101953.03;;;13.68;100.00
69667;BME280;66534;52.370;4.832;2024-02-21T02:01:16;101954.69;;;13.92;100.00
69667;BME280;66534;52.370;4.832;2024-02-21T02:01:47;101956.47;;;14.12;100.00
69667;BME280;66534;52.370;4.832;2024-02-21T02:02:18;101953.25;;;14.06;100.00
69667;BME280;66534;52.370;4.832;2024-02-21T02:02:48;101946.63;;;13.95;100.00
69667;BME280;66534;52.370;4.832;2024-02-21T02:03:19;101951.81;;;14.19;100.00
69667;BME280;66534;52.370;4.832;2024-02-21T02:03:50;101951.69;;;14.00;100.00
69667;BME280;66534;52.370;4.832;2024-02-21T02:04:21;101953.25;;;14.06;100.00
69667;BME280;66534;52.370;4.832;2024-02-21T02:04:51;101953.06;;;14.10;100.00
69667;BME280;66534;52.370;4.832;2024-02-21T02:05:22;101951.22;;;13.90;100.00
69667;BME280;66534;52.370;4.832;2024-02-21T02:05:53;101956.75;;;14.06;100.00
69667;BME280;66534;52.370;4.832;2024-02-21T02:06:24;101944.25;;;13.89;100.00
69667;BME280;66534;52.370;4.832;2024-02-21T02:06:54;101959.47;;;14.05;100.00
69667;BME280;66534;52.370;4.832;2024-02-21T02:07:25;101952.53;;;13.80;100.00
69667;BME280;66534;52.370;4.832;2024-02-21T02:07:56;101947.31;;;13.79;100.00
69667;BME280;66534;52.370;4.832;2024-02-21T02:08:26;101950.59;;;14.06;100.00
69667;BME280;66534;52.370;4.832;2024-02-21T02:08:57;101949.94;;;13.79;100.00
69667;BME280;66534;52.370;4.832;2024-02-21T02:09:27;101944.91;;;13.94;100.00
69667;BME280;66534;52.370;4.832;2024-02-21T02:09:58;101949.25;;;13.95;100.00
69667;BME280;66534;52.370;4.832;2024-02-21T02:10:29;101942.19;;;13.96;100.00
69667;BME280;66534;52.370;4.832;2024-02-21T02:10:59;101946.19;;;14.06;100.00
69667;BME280;66534;52.370;4.832;2024-02-21T02:11:31;101955.47;;;13.94;100.00
69667;BME280;66534;52.370;4.832;2024-02-21T02:12:02;101947.66;;;13.91;100.00
69667;BME280;66534;52.370;4.832;2024-02-21T02:12:33;101941.44;;;13.72;100.00
69667;BME280;66534;52.370;4.832;2024-02-21T02:13:03;101963.88;;;13.60;100.00
69667;BME280;66534;52.370;4.832;2024-02-21T02:13:34;101944.63;;;13.80;100.00
69667;BME280;66534;52.370;4.832;2024-02-21T02:14:04;101949.38;;;13.70;100.00
69667;BME280;66534;52.370;4.832;2024-02-21T02:14:34;101941.69;;;13.88;100.00
69667;BME280;66534;52.370;4.832;2024-02-21T02:15:05;101942.84;;;13.59;100.00
69667;BME280;66534;52.370;4.832;2024-02-21T02:15:42;101949.34;;;13.72;100.00
69667;BME280;66534;52.370;4.832;2024-02-21T02:16:15;101948.38;;;14.17;100.00
69667;BME280;66534;52.370;4.832;2024-02-21T02:16:46;101957.47;;;14.10;100.00
69667;BME280;66534;52.370;4.832;2024-02-21T02:17:17;101941.72;;;13.86;100.00
69667;BME280;66534;52.370;4.832;2024-02-21T02:17:48;101953.28;;;14.04;100.00
69667;BME280;66534;52.370;4.832;2024-02-21T02:18:19;101939.56;;;13.96;100.00
69667;BME280;66534;52.370;4.832;2024-02-21T02:18:49;101941.91;;;13.82;100.00
69667;BME280;66534;52.370;4.832;2024-02-21T02:19:20;101945.44;;;14.03;100.00
69667;BME280;66534;52.370;4.832;2024-02-21T02:19:50;101946.41;;;14.00;100.00
69667;BME280;66534;52.370;4.832;2024-02-21T02:20:21;101937.63;;;14.01;100.00
69667;BME280;66534;52.370;4.832;2024-02-21T02:20:51;101941.44;;;13.72;100.00
69667;BME280;66534;52.370;4.832;2024-02-21T02:21:23;101944.41;;;14.07;100.00
69667;BME280;66534;52.370;4.832;2024-02-21T02:21:57;101948.03;;;14.25;100.00
69667;BME280;66534;52.370;4.832;2024-02-21T02:22:39;101945.41;;;14.25;100.00
69667;BME280;66534;52.370;4.832;2024-02-21T02:23:57;101940.84;;;14.08;100.00
69667;BME280;66534;52.370;4.832;2024-02-21T02:24:28;101935.03;;;14.20;100.00
69667;BME280;66534;52.370;4.832;2024-02-21T02:24:58;101937.63;;;14.22;100.00
69667;BME280;66534;52.370;4.832;2024-02-21T02:25:29;101935.69;;;14.25;100.00
69667;BME280;66534;52.370;4.832;2024-02-21T02:25:59;101942.09;;;14.19;100.00
69667;BME280;66534;52.370;4.832;2024-02-21T02:26:33;101937.16;;;14.32;100.00
69667;BME280;66534;52.370;4.832;2024-02-21T02:27:04;101931.16;;;14.51;100.00
69667;BME280;66534;52.370;4.832;2024-02-21T02:27:41;101936.94;;;14.38;100.00
69667;BME280;66534;52.370;4.832;2024-02-21T02:28:13;101927.53;;;14.11;100.00
69667;BME280;66534;52.370;4.832;2024-02-21T02:28:44;101932.72;;;14.12;100.00
69667;BME280;66534;52.370;4.832;2024-02-21T02:29:14;101930.59;;;14.00;100.00
69667;BME280;66534;52.370;4.832;2024-02-21T02:29:44;101932.53;;;13.97;100.00
69667;BME280;66534;52.370;4.832;2024-02-21T02:30:15;101934.97;;;14.01;100.00
69667;BME280;66534;52.370;4.832;2024-02-21T02:30:45;101929.66;;;14.23;100.00
69667;BME280;66534;52.370;4.832;2024-02-21T02:31:16;101929.38;;;14.29;100.00
69667;BME280;66534;52.370;4.832;2024-02-21T02:31:48;101931.47;;;14.41;100.00
69667;BME280;66534;52.370;4.832;2024-02-21T02:32:19;101933.94;;;14.46;100.00
69667;BME280;66534;52.370;4.832;2024-02-21T02:32:49;101929.16;;;14.56;100.00
69667;BME280;66534;52.370;4.832;2024-02-21T02:33:20;101919.94;;;14.44;100.00
69667;BME280;66534;52.370;4.832;2024-02-21T02:33:50;101928.59;;;14.27;100.00
69667;BME280;66534;52.370;4.832;2024-02-21T02:34:20;101929.94;;;13.95;100.00
69667;BME280;66534;52.370;4.832;2024-02-21T02:34:51;101936.88;;;13.98;100.00
69667;BME280;66534;52.370;4.832;2024-02-21T02:35:21;101937.81;;;14.17;100.00
69667;BME280;66534;52.370;4.832;2024-02-21T02:35:52;101930.56;;;14.02;100.00
69667;BME280;66534;52.370;4.832;2024-02-21T02:36:22;101931.69;;;14.16;100.00
69667;BME280;66534;52.370;4.832;2024-02-21T02:36:52;101919.41;;;14.15;100.00
69667;BME280;66534;52.370;4.832;2024-02-21T02:37:24;101927.47;;;14.33;100.00
69667;BME280;66534;52.370;4.832;2024-02-21T02:37:55;101925.00;;;14.08;100.00
69667;BME280;66534;52.370;4.832;2024-02-21T02:38:25;101922.59;;;13.81;100.00
69667;BME280;66534;52.370;4.832;2024-02-21T02:38:55;101920.34;;;14.14;100.00
69667;BME280;66534;52.370;4.832;2024-02-21T02:39:26;101918.88;;;14.28;100.00
69667;BME280;66534;52.370;4.832;2024-02-21T02:39:56;101921.13;;;14.16;100.00